createdAt,value
2019-03-18T00:00:26.119Z,86.35
2019-03-18T00:02:54.528Z,86.73
2019-03-18T00:05:22.975Z,86.50
2019-03-18T00:07:51.521Z,87.06
2019-03-18T00:10:19.928Z,87.17
2019-03-18T00:12:48.394Z,87.63
2019-03-18T00:15:16.876Z,87.60
2019-03-18T00:17:45.388Z,87.64
2019-03-18T00:20:14.108Z,87.53
2019-03-18T00:22:42.512Z,87.50
2019-03-18T00:25:17.457Z,87.37
2019-03-18T00:27:45.913Z,87.39
2019-03-18T00:30:20.888Z,87.44
2019-03-18T00:32:49.545Z,87.43
2019-03-18T00:35:17.935Z,87.47
2019-03-18T00:37:46.329Z,87.85
2019-03-18T00:40:18.498Z,87.96
2019-03-18T00:42:46.981Z,88.11
2019-03-18T00:45:15.899Z,88.08
2019-03-18T00:47:44.534Z,87.79
2019-03-18T00:50:16.808Z,88.47
2019-03-18T00:52:45.271Z,87.95
2019-03-18T00:55:14.063Z,88.20
2019-03-18T00:57:42.511Z,89.21
2019-03-18T01:00:15.835Z,89.21
2019-03-18T01:02:44.332Z,89.18
2019-03-18T01:05:13.282Z,88.24
2019-03-18T01:07:41.686Z,87.19
2019-03-18T01:10:14.250Z,86.65
2019-03-18T01:12:42.770Z,86.50
2019-03-18T01:15:11.898Z,85.03
2019-03-18T01:17:40.292Z,84.52
2019-03-18T01:20:13.415Z,84.28
2019-03-18T01:22:41.978Z,84.09
2019-03-18T01:25:11.216Z,83.89
2019-03-18T01:27:39.659Z,83.81
2019-03-18T01:30:13.138Z,83.84
2019-03-18T01:32:41.610Z,83.76
2019-03-18T01:35:10.955Z,83.87
2019-03-18T01:37:39.378Z,84.07
2019-03-18T01:40:10.195Z,84.09
2019-03-18T01:42:38.666Z,83.65
2019-03-18T01:45:07.890Z,83.23
2019-03-18T01:47:36.318Z,82.11
2019-03-18T01:50:06.953Z,82.60
2019-03-18T01:52:35.407Z,82.35
2019-03-18T01:55:05.444Z,81.99
2019-03-18T01:57:33.840Z,82.33
2019-03-18T02:00:02.402Z,82.40
2019-03-18T02:02:30.794Z,82.13
2019-03-18T02:04:59.189Z,82.05
2019-03-18T02:07:27.577Z,82.07
2019-03-18T02:09:55.968Z,82.16
2019-03-18T02:12:24.368Z,82.29
2019-03-18T02:14:52.838Z,82.35
2019-03-18T02:17:21.224Z,82.61
2019-03-18T02:19:49.607Z,82.88
2019-03-18T02:22:18.006Z,82.60
2019-03-18T02:24:46.406Z,82.62
2019-03-18T02:27:14.955Z,82.36
2019-03-18T02:29:43.369Z,81.83
2019-03-18T02:32:11.765Z,81.80
2019-03-18T02:34:40.171Z,81.85
2019-03-18T02:37:08.557Z,81.34
2019-03-18T02:39:37.068Z,81.75
2019-03-18T02:42:05.476Z,82.00
2019-03-18T02:44:33.844Z,82.12
2019-03-18T02:47:02.236Z,82.08
2019-03-18T02:49:30.664Z,81.75
2019-03-18T02:51:59.154Z,82.21
2019-03-18T02:54:27.535Z,82.24
2019-03-18T02:56:55.934Z,82.19
2019-03-18T02:59:24.317Z,82.74
2019-03-18T03:01:52.978Z,82.92
2019-03-18T03:04:21.387Z,83.02
2019-03-18T03:06:49.898Z,82.88
2019-03-18T03:09:18.283Z,83.27
2019-03-18T03:11:46.702Z,83.28
2019-03-18T03:14:15.078Z,83.30
2019-03-18T03:16:43.554Z,82.77
2019-03-18T03:19:11.928Z,83.21
2019-03-18T03:21:40.314Z,83.21
2019-03-18T03:24:08.704Z,83.76
2019-03-18T03:26:37.118Z,83.45
2019-03-18T03:29:05.503Z,83.79
2019-03-18T03:31:33.931Z,83.95
2019-03-18T03:34:02.364Z,84.05
2019-03-18T03:36:30.728Z,84.54
2019-03-18T03:38:59.105Z,85.31
2019-03-18T03:41:27.557Z,85.02
2019-03-18T03:43:56.019Z,84.95
2019-03-18T03:46:24.393Z,85.31
2019-03-18T03:48:52.793Z,85.33
2019-03-18T03:51:21.215Z,85.33
2019-03-18T03:53:49.619Z,85.36
2019-03-18T03:56:18.360Z,85.16
2019-03-18T03:58:47.088Z,85.15
2019-03-18T04:01:15.700Z,84.92
2019-03-18T04:03:44.101Z,85.02
2019-03-18T04:06:12.499Z,85.00
2019-03-18T04:08:40.903Z,85.18
2019-03-18T04:11:09.465Z,85.27
2019-03-18T04:13:37.865Z,85.21
2019-03-18T04:16:06.248Z,85.48
2019-03-18T04:18:34.641Z,86.04
2019-03-18T04:21:03.048Z,86.35
2019-03-18T04:23:31.434Z,86.74
2019-03-18T04:28:34.966Z,87.66
2019-03-18T04:31:03.370Z,87.36
2019-03-18T04:33:31.764Z,87.54
2019-03-18T04:36:00.160Z,92.54
2019-03-18T04:38:28.551Z,96.12
2019-03-18T04:40:56.990Z,94.63
2019-03-18T04:43:25.356Z,93.00
2019-03-18T04:45:53.748Z,92.80
2019-03-18T04:48:22.142Z,95.08
2019-03-18T04:50:50.607Z,97.87
2019-03-18T04:53:19.000Z,99.18
2019-03-18T04:55:47.423Z,94.98
2019-03-18T04:58:15.810Z,92.88
2019-03-18T05:00:44.318Z,95.11
2019-03-18T05:03:12.699Z,93.70
2019-03-18T05:05:41.102Z,89.21
2019-03-18T05:08:09.490Z,88.94
2019-03-18T05:10:37.907Z,89.05
2019-03-18T05:13:06.386Z,88.46
2019-03-18T05:15:34.796Z,87.32
2019-03-18T05:18:03.184Z,87.03
2019-03-18T05:20:31.605Z,87.30
2019-03-18T05:23:00.054Z,86.87
2019-03-18T05:25:28.463Z,87.02
2019-03-18T05:27:56.852Z,86.06
2019-03-18T05:30:25.277Z,86.08
2019-03-18T05:32:53.651Z,86.27
2019-03-18T05:35:22.041Z,86.51
2019-03-18T05:37:50.460Z,86.79
2019-03-18T05:40:18.841Z,86.70
2019-03-18T05:42:47.260Z,86.91
2019-03-18T05:45:15.705Z,86.47
2019-03-18T05:47:44.118Z,86.68
2019-03-18T05:50:12.564Z,86.97
2019-03-18T05:52:40.974Z,86.39
2019-03-18T05:55:10.127Z,86.52
2019-03-18T05:57:38.531Z,85.40
2019-03-18T06:00:12.003Z,84.90
2019-03-18T06:02:40.505Z,85.20
2019-03-18T06:05:10.515Z,84.72
2019-03-18T06:07:38.915Z,84.53
2019-03-18T06:10:11.627Z,84.69
2019-03-18T06:12:40.039Z,84.13
2019-03-18T06:15:12.280Z,84.65
2019-03-18T06:17:51.555Z,83.53
2019-03-18T06:20:11.741Z,83.56
2019-03-18T06:22:40.142Z,83.19
2019-03-18T06:25:09.275Z,83.50
2019-03-18T06:27:37.762Z,83.79
2019-03-18T06:30:17.419Z,83.48
2019-03-18T06:32:45.842Z,82.98
2019-03-18T06:35:14.255Z,83.04
2019-03-18T06:37:42.633Z,81.78
2019-03-18T06:40:12.674Z,82.14
2019-03-18T06:42:41.142Z,82.07
2019-03-18T06:45:10.993Z,81.81
2019-03-18T06:47:39.397Z,81.67
2019-03-18T06:50:09.730Z,81.78
2019-03-18T06:52:38.113Z,81.57
2019-03-18T06:55:07.176Z,80.82
2019-03-18T06:57:35.568Z,80.49
2019-03-18T07:00:07.047Z,79.42
2019-03-18T07:02:35.538Z,79.63
2019-03-18T07:05:04.712Z,78.72
2019-03-18T07:07:33.097Z,77.87
2019-03-18T07:10:01.511Z,77.65
2019-03-18T07:12:29.917Z,77.67
2019-03-18T07:14:58.331Z,76.44
2019-03-18T07:17:26.748Z,73.74
2019-03-18T07:19:55.161Z,65.86
2019-03-18T07:22:23.578Z,62.53
2019-03-18T07:24:52.015Z,56.99
2019-03-18T07:27:20.439Z,52.11
2019-03-18T07:29:48.840Z,49.51
2019-03-18T07:32:17.259Z,47.92
2019-03-18T07:34:45.646Z,47.85
2019-03-18T07:37:14.100Z,47.36
2019-03-18T07:39:42.492Z,46.18
2019-03-18T07:42:10.898Z,47.42
2019-03-18T07:44:39.304Z,47.94
2019-03-18T07:47:07.793Z,47.32
2019-03-18T07:49:36.293Z,45.67
2019-03-18T07:52:04.839Z,45.66
2019-03-18T07:54:33.394Z,47.41
2019-03-18T07:57:01.842Z,46.72
2019-03-18T07:59:30.219Z,45.98
2019-03-18T08:01:58.660Z,45.52
2019-03-18T08:04:36.651Z,45.13
2019-03-18T08:06:57.251Z,46.06
2019-03-18T08:09:25.671Z,47.76
2019-03-18T08:11:54.060Z,47.14
2019-03-18T08:14:22.512Z,49.52
2019-03-18T08:16:50.900Z,54.37
2019-03-18T08:19:19.312Z,59.34
2019-03-18T08:21:47.689Z,63.61
2019-03-18T08:24:16.124Z,65.22
2019-03-18T08:26:44.518Z,66.56
2019-03-18T08:29:12.917Z,67.79
2019-03-18T08:31:41.340Z,67.65
2019-03-18T08:34:09.795Z,67.78
2019-03-18T08:36:38.191Z,68.00
2019-03-18T08:39:07.365Z,67.93
2019-03-18T08:41:35.758Z,68.24
2019-03-18T08:44:04.322Z,67.84
2019-03-18T08:46:32.714Z,67.73
2019-03-18T08:49:01.129Z,67.92
2019-03-18T08:51:29.521Z,67.22
2019-03-18T08:53:57.989Z,68.24
2019-03-18T08:56:26.388Z,62.28
2019-03-18T08:58:54.792Z,62.66
2019-03-18T09:01:23.260Z,63.58
2019-03-18T09:03:51.682Z,61.85
2019-03-18T09:06:20.084Z,58.17
2019-03-18T09:08:48.553Z,58.17
2019-03-18T09:11:17.129Z,55.51
2019-03-18T09:13:45.547Z,55.08
2019-03-18T09:16:13.966Z,57.89
2019-03-18T09:18:42.353Z,56.42
2019-03-18T09:21:10.757Z,53.39
2019-03-18T09:23:39.160Z,54.83
2019-03-18T09:26:07.623Z,56.68
2019-03-18T09:28:36.082Z,58.33
2019-03-18T09:31:04.588Z,59.27
2019-03-18T09:33:33.033Z,60.82
2019-03-18T09:36:01.490Z,55.95
2019-03-18T09:38:29.900Z,55.58
2019-03-18T09:40:58.378Z,47.72
2019-03-18T09:43:26.806Z,41.76
2019-03-18T09:45:55.221Z,37.18
2019-03-18T09:48:23.616Z,37.48
2019-03-18T09:50:52.042Z,36.25
2019-03-18T09:53:20.463Z,38.29
2019-03-18T09:55:48.896Z,41.86
2019-03-18T09:58:17.303Z,42.39
2019-03-18T10:00:45.782Z,45.11
2019-03-18T10:03:14.173Z,48.02
2019-03-18T10:05:43.914Z,50.57
2019-03-18T10:08:12.467Z,52.01
2019-03-18T10:10:40.930Z,48.54
2019-03-18T10:13:09.336Z,44.78
2019-03-18T10:15:37.727Z,42.95
2019-03-18T10:18:06.146Z,40.65
2019-03-18T10:20:34.545Z,41.63
2019-03-18T10:23:03.227Z,45.97
2019-03-18T10:25:31.732Z,47.92
2019-03-18T10:28:00.134Z,51.32
2019-03-18T10:30:28.572Z,53.28
2019-03-18T10:32:56.942Z,54.95
2019-03-18T10:35:25.353Z,55.76
2019-03-18T10:37:53.778Z,54.84
2019-03-18T10:40:22.190Z,55.33
2019-03-18T10:42:50.624Z,56.71
2019-03-18T10:45:19.027Z,58.91
2019-03-18T10:47:47.447Z,59.82
2019-03-18T10:50:17.012Z,59.50
2019-03-18T10:52:45.722Z,61.14
2019-03-18T10:55:14.282Z,60.94
2019-03-18T10:57:42.665Z,61.82
2019-03-18T11:00:15.785Z,61.82
2019-03-18T11:02:45.208Z,56.35
2019-03-18T11:05:14.470Z,56.35
2019-03-18T11:07:42.978Z,55.80
2019-03-18T11:10:17.590Z,55.54
2019-03-18T11:12:46.047Z,56.80
2019-03-18T11:15:20.564Z,56.49
2019-03-18T11:17:49.002Z,56.55
2019-03-18T11:20:17.860Z,56.14
2019-03-18T11:22:46.232Z,56.65
2019-03-18T11:25:15.464Z,56.95
2019-03-18T11:27:43.857Z,54.85
2019-03-18T11:30:19.329Z,54.37
2019-03-18T11:32:47.737Z,58.44
2019-03-18T11:35:16.113Z,58.44
2019-03-18T11:37:44.499Z,58.66
2019-03-18T11:40:15.406Z,58.75
2019-03-18T11:42:43.864Z,58.93
2019-03-18T11:45:13.925Z,63.00
2019-03-18T11:47:42.405Z,63.00
2019-03-18T11:50:13.054Z,65.84
2019-03-18T11:52:41.625Z,65.84
2019-03-18T11:55:12.979Z,67.03
2019-03-18T11:57:41.376Z,67.75
2019-03-18T12:00:26.453Z,66.75
2019-03-18T12:02:55.401Z,63.71
2019-03-18T12:05:27.831Z,63.71
2019-03-18T12:07:56.488Z,60.77
2019-03-18T12:10:25.897Z,58.96
2019-03-18T12:12:54.606Z,49.56
2019-03-18T12:15:25.358Z,48.83
2019-03-18T12:17:53.983Z,49.53
2019-03-18T12:20:25.477Z,44.82
2019-03-18T12:22:52.984Z,40.61
2019-03-18T12:25:21.549Z,33.96
2019-03-18T12:27:50.046Z,28.98
2019-03-18T12:30:23.734Z,27.45
2019-03-18T12:32:52.275Z,28.93
2019-03-18T12:35:20.743Z,29.43
2019-03-18T12:37:49.254Z,26.35
2019-03-18T12:40:18.288Z,26.06
2019-03-18T12:42:46.779Z,26.12
2019-03-18T12:45:16.163Z,25.21
2019-03-18T12:47:44.546Z,26.44
2019-03-18T12:50:17.961Z,26.58
2019-03-18T12:52:46.396Z,27.26
2019-03-18T12:55:15.040Z,30.56
2019-03-18T12:57:43.721Z,34.75
2019-03-18T13:00:18.293Z,36.82
2019-03-18T13:02:46.883Z,40.33
2019-03-18T13:05:15.410Z,42.65
2019-03-18T13:07:43.972Z,45.53
2019-03-18T13:10:15.416Z,46.85
2019-03-18T13:12:43.948Z,48.10
2019-03-18T13:15:15.228Z,46.16
2019-03-18T13:17:44.241Z,42.10
2019-03-18T13:20:14.501Z,41.70
2019-03-18T13:22:43.016Z,39.80
2019-03-18T13:25:12.550Z,42.51
2019-03-18T13:27:41.521Z,47.61
2019-03-18T13:30:15.624Z,49.47
2019-03-18T13:32:44.169Z,45.55
2019-03-18T13:35:12.753Z,41.71
2019-03-18T13:37:41.564Z,40.20
2019-03-18T13:40:14.999Z,35.79
2019-03-18T13:42:43.432Z,34.68
2019-03-18T13:45:14.456Z,34.25
2019-03-18T13:47:43.075Z,36.24
2019-03-18T13:50:16.512Z,33.76
2019-03-18T13:52:45.071Z,30.77
2019-03-18T13:55:13.754Z,28.68
2019-03-18T13:57:42.235Z,28.94
2019-03-18T14:00:17.356Z,30.78
2019-03-18T14:02:46.009Z,31.96
2019-03-18T14:05:14.513Z,32.51
2019-03-18T14:07:42.907Z,32.47
2019-03-18T14:10:19.702Z,34.56
2019-03-18T14:12:48.260Z,34.20
2019-03-18T14:15:21.938Z,33.38
2019-03-18T14:17:50.531Z,34.04
2019-03-18T14:20:20.772Z,34.85
2019-03-18T14:22:49.247Z,35.60
2019-03-18T14:25:17.657Z,36.26
2019-03-18T14:27:46.107Z,37.70
2019-03-18T14:30:17.182Z,38.69
2019-03-18T14:32:45.582Z,36.52
2019-03-18T14:35:14.750Z,34.60
2019-03-18T14:37:43.175Z,34.24
2019-03-18T14:40:13.786Z,34.40
2019-03-18T14:42:42.306Z,34.79
2019-03-18T14:45:13.601Z,36.13
2019-03-18T14:47:42.034Z,36.96
2019-03-18T14:50:12.035Z,37.94
2019-03-18T14:52:40.453Z,39.33
2019-03-18T14:55:11.559Z,38.52
2019-03-18T14:57:39.984Z,38.90
2019-03-18T15:00:11.448Z,40.48
2019-03-18T15:02:39.853Z,38.41
2019-03-18T15:05:11.222Z,37.88
2019-03-18T15:07:39.639Z,38.99
2019-03-18T15:10:16.296Z,39.63
2019-03-18T15:12:44.722Z,40.42
2019-03-18T15:15:15.067Z,43.25
2019-03-18T15:17:43.571Z,47.26
2019-03-18T15:20:14.068Z,49.91
2019-03-18T15:22:42.649Z,52.31
2019-03-18T15:25:16.720Z,53.36
2019-03-18T15:27:45.218Z,60.07
2019-03-18T15:30:16.314Z,69.77
2019-03-18T15:32:44.896Z,69.77
2019-03-18T15:35:14.041Z,71.96
2019-03-18T15:37:42.543Z,71.28
2019-03-18T15:40:16.152Z,71.21
2019-03-18T15:42:44.610Z,66.23
2019-03-18T15:45:22.380Z,70.49
2019-03-18T15:47:51.017Z,71.84
2019-03-18T15:50:21.429Z,71.84
2019-03-18T15:52:49.858Z,71.04
2019-03-18T15:55:18.387Z,70.81
2019-03-18T15:57:46.801Z,70.12
2019-03-18T16:00:20.163Z,72.40
2019-03-18T16:02:48.631Z,71.27
2019-03-18T16:05:17.113Z,71.66
2019-03-18T16:07:45.674Z,68.89
2019-03-18T16:10:17.808Z,68.89
2019-03-18T16:12:46.205Z,69.71
2019-03-18T16:15:15.862Z,68.11
2019-03-18T16:17:44.326Z,67.14
2019-03-18T16:20:15.125Z,66.28
2019-03-18T16:22:43.658Z,63.10
2019-03-18T16:25:12.541Z,63.10
2019-03-18T16:27:41.049Z,62.52
2019-03-18T16:30:14.603Z,63.32
2019-03-18T16:32:43.226Z,65.98
2019-03-18T16:35:16.182Z,66.82
2019-03-18T16:37:45.004Z,66.82
2019-03-18T16:40:21.207Z,66.49
2019-03-18T16:42:49.740Z,66.16
2019-03-18T16:45:21.326Z,65.10
2019-03-18T16:47:49.966Z,64.60
2019-03-18T16:50:28.414Z,61.05
2019-03-18T16:52:56.830Z,62.12
2019-03-18T16:55:25.354Z,63.50
2019-03-18T16:57:53.828Z,63.14
2019-03-18T17:00:23.743Z,63.96
2019-03-18T17:02:52.203Z,65.33
2019-03-18T17:05:20.691Z,64.22
2019-03-18T17:07:49.174Z,65.57
2019-03-18T17:10:17.682Z,66.68
2019-03-18T17:12:46.144Z,67.65
2019-03-18T17:15:15.905Z,69.87
2019-03-18T17:17:44.324Z,69.36
2019-03-18T17:20:16.201Z,70.33
2019-03-18T17:22:49.495Z,70.71
2019-03-18T17:25:24.235Z,74.12
2019-03-18T17:27:52.639Z,80.32
2019-03-18T17:30:21.424Z,76.00
2019-03-18T17:32:49.822Z,74.99
2019-03-18T17:35:18.221Z,76.89
2019-03-18T17:37:47.010Z,77.54
2019-03-18T17:40:19.076Z,80.78
2019-03-18T17:42:47.551Z,79.28
2019-03-18T17:45:16.765Z,74.23
2019-03-18T17:47:45.495Z,74.40
2019-03-18T17:50:16.126Z,76.60
2019-03-18T17:52:44.637Z,79.73
2019-03-18T17:55:13.166Z,84.72
2019-03-18T17:57:41.582Z,83.12
2019-03-18T18:00:18.834Z,79.52
2019-03-18T18:02:47.239Z,82.57
2019-03-18T18:05:15.708Z,82.57
2019-03-18T18:07:44.300Z,83.69
2019-03-18T18:10:13.014Z,79.06
2019-03-18T18:12:41.402Z,77.74
2019-03-18T18:15:10.993Z,78.11
2019-03-18T18:17:39.536Z,77.90
2019-03-18T18:20:10.399Z,78.09
2019-03-18T18:22:41.046Z,79.50
2019-03-18T18:25:10.538Z,80.69
2019-03-18T18:27:38.944Z,80.57
2019-03-18T18:30:13.213Z,80.82
2019-03-18T18:32:41.768Z,80.91
2019-03-18T18:35:11.512Z,80.97
2019-03-18T18:37:39.943Z,81.80
2019-03-18T18:40:20.475Z,81.54
2019-03-18T18:42:49.011Z,80.79
2019-03-18T18:45:17.544Z,81.17
2019-03-18T18:47:46.001Z,81.48
2019-03-18T18:50:14.547Z,81.09
2019-03-18T18:52:43.011Z,81.92
2019-03-18T18:55:12.601Z,81.89
2019-03-18T18:57:41.061Z,81.80
2019-03-18T19:00:20.075Z,81.68
2019-03-18T19:02:48.697Z,80.49
2019-03-18T19:05:17.877Z,82.02
2019-03-18T19:07:46.440Z,82.47
2019-03-18T19:10:16.415Z,82.75
2019-03-18T19:12:44.900Z,83.13
2019-03-18T19:15:18.717Z,83.01
2019-03-18T19:17:47.280Z,83.44
2019-03-18T19:20:15.942Z,83.62
2019-03-18T19:22:44.526Z,83.97
2019-03-18T19:25:14.600Z,83.62
2019-03-18T19:27:43.068Z,83.53
2019-03-18T19:30:17.337Z,84.26
2019-03-18T19:32:45.742Z,84.62
2019-03-18T19:35:14.316Z,85.50
2019-03-18T19:37:42.785Z,85.18
2019-03-18T19:40:13.636Z,85.15
2019-03-18T19:42:42.043Z,85.93
2019-03-18T19:45:15.100Z,86.07
2019-03-18T19:47:43.511Z,87.14
2019-03-18T19:50:23.908Z,93.30
2019-03-18T19:52:52.413Z,95.51
2019-03-18T19:55:20.941Z,97.69
2019-03-18T19:57:49.417Z,92.89
2019-03-18T20:00:20.576Z,96.60
2019-03-18T20:02:49.094Z,94.55
2019-03-18T20:05:18.911Z,94.70
2019-03-18T20:07:47.539Z,93.62
2019-03-18T20:10:17.198Z,92.90
2019-03-18T20:12:45.788Z,91.68
2019-03-18T20:15:15.734Z,91.99
2019-03-18T20:17:44.167Z,92.09
2019-03-18T20:20:15.158Z,90.59
2019-03-18T20:22:43.659Z,90.68
2019-03-18T20:25:13.527Z,91.59
2019-03-18T20:27:42.144Z,90.31
2019-03-18T20:30:19.756Z,90.28
2019-03-18T20:32:48.291Z,90.33
2019-03-18T20:35:18.287Z,90.14
2019-03-18T20:37:46.705Z,89.91
2019-03-18T20:40:16.063Z,89.81
2019-03-18T20:42:44.595Z,89.37
2019-03-18T20:45:17.814Z,90.05
2019-03-18T20:47:46.213Z,90.69
2019-03-18T20:50:22.735Z,90.13
2019-03-18T20:52:51.151Z,90.68
2019-03-18T20:55:19.719Z,91.16
2019-03-18T20:57:48.181Z,91.57
2019-03-18T21:03:40.402Z,92.38
2019-03-18T21:06:08.858Z,91.78
2019-03-18T21:08:37.316Z,92.67
2019-03-18T21:11:05.759Z,92.60
2019-03-18T21:13:34.185Z,92.51
2019-03-18T21:16:02.638Z,92.82
2019-03-18T21:18:31.036Z,94.06
2019-03-18T21:20:59.514Z,94.64
2019-03-18T21:23:27.915Z,94.45
2019-03-18T21:25:56.369Z,93.56
2019-03-18T21:28:24.818Z,94.04
2019-03-18T21:30:53.264Z,94.90
2019-03-18T21:33:21.700Z,95.49
2019-03-18T21:35:52.741Z,95.34
2019-03-18T21:38:20.375Z,96.08
2019-03-18T21:40:48.827Z,96.74
2019-03-18T21:43:17.223Z,97.41
2019-03-18T21:45:45.636Z,97.86
2019-03-18T21:48:14.093Z,97.98
2019-03-18T21:50:42.511Z,98.08
2019-03-18T21:53:10.964Z,98.17
2019-03-18T21:55:39.377Z,98.46
2019-03-18T21:58:07.822Z,98.73
2019-03-18T22:00:36.227Z,98.63
2019-03-18T22:03:05.269Z,98.65
2019-03-18T22:05:33.777Z,98.21
2019-03-18T22:08:02.172Z,97.84
2019-03-18T22:10:30.604Z,97.75
2019-03-18T22:12:59.001Z,97.74
2019-03-18T22:15:27.438Z,97.57
2019-03-18T22:17:55.837Z,97.60
2019-03-18T22:20:24.237Z,97.60
2019-03-18T22:22:52.727Z,97.85
2019-03-18T22:25:21.310Z,97.40
2019-03-18T22:27:49.720Z,97.13
2019-03-18T22:30:20.859Z,96.34
2019-03-18T22:32:50.400Z,96.40
2019-03-18T22:35:18.823Z,96.69
2019-03-18T22:37:47.247Z,96.36
2019-03-18T22:40:16.866Z,96.40
2019-03-18T22:42:45.441Z,96.35
2019-03-18T22:45:15.202Z,96.27
2019-03-18T22:47:43.804Z,95.82
2019-03-18T22:50:13.491Z,95.10
2019-03-18T22:52:41.899Z,95.21
2019-03-18T22:55:11.541Z,95.53
2019-03-18T22:57:40.114Z,94.71
2019-03-18T23:00:26.061Z,94.86
2019-03-18T23:02:54.819Z,95.40
2019-03-18T23:05:23.554Z,95.33
2019-03-18T23:07:51.971Z,94.99
2019-03-18T23:10:20.380Z,94.82
2019-03-18T23:12:48.761Z,95.01
2019-03-18T23:15:17.243Z,95.12
2019-03-18T23:17:45.642Z,95.58
2019-03-18T23:20:14.269Z,95.48
2019-03-18T23:22:42.672Z,96.07
2019-03-18T23:25:11.421Z,95.71
2019-03-18T23:27:39.813Z,95.77
2019-03-18T23:30:11.073Z,96.13
2019-03-18T23:32:39.536Z,94.75
2019-03-18T23:35:08.682Z,95.22
2019-03-18T23:37:37.176Z,95.36
2019-03-18T23:40:08.326Z,95.75
2019-03-18T23:42:36.725Z,95.23
2019-03-18T23:45:06.389Z,94.77
2019-03-18T23:47:35.112Z,95.06
2019-03-18T23:50:04.693Z,95.39
2019-03-18T23:52:33.170Z,95.44
2019-03-18T23:55:01.656Z,95.89
2019-03-18T23:57:30.059Z,96.44
2019-03-18T23:59:58.520Z,97.14
